sensor_id;sensor_type;location;lat;lon;timestamp;pressure;altitude;pressure_sealevel;temperature;humidity
77112;BME280;66064;50.226;14.344;2023-06-24T00:02:24;100041.50;;;15.92;85.85
77112;BME280;66064;50.226;14.344;2023-06-24T00:04:51;100054.94;;;15.95;86.56
77112;BME280;66064;50.226;14.344;2023-06-24T00:07:19;100055.81;;;15.98;85.23
77112;BME280;66064;50.226;14.344;2023-06-24T00:09:47;100038.88;;;15.90;86.15
77112;BME280;66064;50.226;14.344;2023-06-24T00:12:13;100040.63;;;15.94;85.50
77112;BME280;66064;50.226;14.344;2023-06-24T00:14:46;100045.09;;;15.94;86.21
77112;BME280;66064;50.226;14.344;2023-06-24T00:17:12;100029.88;;;15.94;85.21
77112;BME280;66064;50.226;14.344;2023-06-24T00:19:38;100048.66;;;15.96;85.77
77112;BME280;66064;50.226;14.344;2023-06-24T00:22:04;100048.66;;;16.02;85.00
77112;BME280;66064;50.226;14.344;2023-06-24T00:24:31;100043.31;;;15.91;84.48
77112;BME280;66064;50.226;14.344;2023-06-24T00:26:57;100051.34;;;15.94;85.53
77112;BME280;66064;50.226;14.344;2023-06-24T00:29:23;100039.72;;;15.95;84.53
77112;BME280;66064;50.226;14.344;2023-06-24T00:31:49;100043.31;;;15.93;84.83
77112;BME280;66064;50.226;14.344;2023-06-24T00:34:15;100047.81;;;15.91;84.70
77112;BME280;66064;50.226;14.344;2023-06-24T00:36:42;100046.91;;;15.90;85.34
77112;BME280;66064;50.226;14.344;2023-06-24T00:39:12;100064.75;;;16.00;85.06
77112;BME280;66064;50.226;14.344;2023-06-24T00:41:39;100061.19;;;15.98;85.60
77112;BME280;66064;50.226;14.344;2023-06-24T00:44:04;100060.28;;;15.99;85.69
77112;BME280;66064;50.226;14.344;2023-06-24T00:46:31;100064.75;;;16.02;84.41
77112;BME280;66064;50.226;14.344;2023-06-24T00:48:59;100067.44;;;16.03;84.15
77112;BME280;66064;50.226;14.344;2023-06-24T00:51:26;100080.88;;;15.99;85.43
77112;BME280;66064;50.226;14.344;2023-06-24T00:53:55;100085.34;;;15.98;85.19
77112;BME280;66064;50.226;14.344;2023-06-24T00:56:35;100088.03;;;15.95;85.90
77112;BME280;66064;50.226;14.344;2023-06-24T00:59:04;100090.72;;;16.01;86.06
77112;BME280;66064;50.226;14.344;2023-06-24T01:01:33;100092.50;;;16.02;85.06
77112;BME280;66064;50.226;14.344;2023-06-24T01:04:03;100074.66;;;15.91;85.01
77112;BME280;66064;50.226;14.344;2023-06-24T01:06:30;100096.09;;;15.95;83.24
77112;BME280;66064;50.226;14.344;2023-06-24T01:08:57;100089.81;;;15.99;84.30
77112;BME280;66064;50.226;14.344;2023-06-24T01:11:23;100087.13;;;15.99;84.17
77112;BME280;66064;50.226;14.344;2023-06-24T01:13:50;100095.19;;;15.99;84.10
77112;BME280;66064;50.226;14.344;2023-06-24T01:19:53;100093.41;;;16.00;85.20
77112;BME280;66064;50.226;14.344;2023-06-24T01:22:46;100093.41;;;16.01;85.49
77112;BME280;66064;50.226;14.344;2023-06-24T01:28:23;100088.94;;;15.97;86.07
77112;BME280;66064;50.226;14.344;2023-06-24T01:34:12;100074.59;;;16.04;86.56
77112;BME280;66064;50.226;14.344;2023-06-24T01:36:40;100076.38;;;16.05;85.37
77112;BME280;66064;50.226;14.344;2023-06-24T01:39:11;100075.50;;;15.99;86.37
77112;BME280;66064;50.226;14.344;2023-06-24T01:41:51;100063.00;;;15.92;86.64
77112;BME280;66064;50.226;14.344;2023-06-24T01:44:20;100060.31;;;15.92;86.92
77112;BME280;66064;50.226;14.344;2023-06-24T01:46:48;100049.56;;;15.93;85.90
77112;BME280;66064;50.226;14.344;2023-06-24T01:49:19;100051.34;;;15.94;87.06
77112;BME280;66064;50.226;14.344;2023-06-24T01:51:47;100055.88;;;15.88;87.50
77112;BME280;66064;50.226;14.344;2023-06-24T01:54:15;100056.75;;;15.88;87.41
77112;BME280;66064;50.226;14.344;2023-06-24T01:56:45;100040.66;;;15.88;88.16
77112;BME280;66064;50.226;14.344;2023-06-24T01:59:15;100040.66;;;15.82;88.11
77112;BME280;66064;50.226;14.344;2023-06-24T02:01:43;100040.66;;;15.78;88.15
77112;BME280;66064;50.226;14.344;2023-06-24T02:04:11;100053.19;;;15.86;87.65
77112;BME280;66064;50.226;14.344;2023-06-24T02:06:39;100048.72;;;15.90;87.82
77112;BME280;66064;50.226;14.344;2023-06-24T02:09:06;100055.88;;;15.83;87.78
77112;BME280;66064;50.226;14.344;2023-06-24T02:11:34;100059.47;;;15.76;88.97
77112;BME280;66064;50.226;14.344;2023-06-24T02:14:03;100069.28;;;15.83;89.18
77112;BME280;66064;50.226;14.344;2023-06-24T02:16:30;100072.88;;;15.78;89.19
77112;BME280;66064;50.226;14.344;2023-06-24T02:18:58;100077.34;;;15.85;88.84
77112;BME280;66064;50.226;14.344;2023-06-24T02:21:24;100075.56;;;15.84;88.80
77112;BME280;66064;50.226;14.344;2023-06-24T02:23:53;100077.34;;;15.77;88.52
77112;BME280;66064;50.226;14.344;2023-06-24T02:26:19;100072.03;;;15.72;88.59
77112;BME280;66064;50.226;14.344;2023-06-24T02:28:46;100086.28;;;15.90;88.31
77112;BME280;66064;50.226;14.344;2023-06-24T02:31:12;100096.09;;;15.95;87.96
77112;BME280;66064;50.226;14.344;2023-06-24T02:33:39;100097.00;;;15.93;88.30
77112;BME280;66064;50.226;14.344;2023-06-24T02:36:05;100097.00;;;15.94;87.20
77112;BME280;66064;50.226;14.344;2023-06-24T02:38:31;100080.88;;;15.94;87.27
77112;BME280;66064;50.226;14.344;2023-06-24T02:40:57;100097.88;;;16.04;86.11
77112;BME280;66064;50.226;14.344;2023-06-24T02:43:24;100097.88;;;16.05;86.14
77112;BME280;66064;50.226;14.344;2023-06-24T02:45:50;100105.88;;;16.10;86.33
77112;BME280;66064;50.226;14.344;2023-06-24T02:48:18;100106.81;;;16.04;86.45
77112;BME280;66064;50.226;14.344;2023-06-24T02:50:46;100112.19;;;16.01;86.72
77112;BME280;66064;50.226;14.344;2023-06-24T02:53:14;100112.19;;;15.95;88.72
77112;BME280;66064;50.226;14.344;2023-06-24T02:55:40;100110.41;;;15.96;87.88
77112;BME280;66064;50.226;14.344;2023-06-24T02:58:08;100117.56;;;15.95;87.60
77112;BME280;66064;50.226;14.344;2023-06-24T03:00:36;100119.34;;;15.98;87.86
77112;BME280;66064;50.226;14.344;2023-06-24T03:03:04;100125.63;;;16.01;87.28
77112;BME280;66064;50.226;14.344;2023-06-24T03:05:31;100128.31;;;15.98;87.96
77112;BME280;66064;50.226;14.344;2023-06-24T03:07:58;100135.47;;;16.02;87.60
77112;BME280;66064;50.226;14.344;2023-06-24T03:10:25;100117.56;;;15.95;87.71
77112;BME280;66064;50.226;14.344;2023-06-24T03:12:52;100120.25;;;15.97;87.28
77112;BME280;66064;50.226;14.344;2023-06-24T03:15:17;100125.63;;;15.98;87.77
77112;BME280;66064;50.226;14.344;2023-06-24T03:17:44;100120.25;;;15.98;87.72
77112;BME280;66064;50.226;14.344;2023-06-24T03:20:10;100123.81;;;15.93;87.99
77112;BME280;66064;50.226;14.344;2023-06-24T03:22:36;100139.03;;;15.95;88.42
77112;BME280;66064;50.226;14.344;2023-06-24T03:25:02;100139.03;;;15.95;88.50
77112;BME280;66064;50.226;14.344;2023-06-24T03:27:28;100135.50;;;15.90;88.99
77112;BME280;66064;50.226;14.344;2023-06-24T03:29:57;100148.00;;;15.97;88.49
77112;BME280;66064;50.226;14.344;2023-06-24T03:32:23;100152.47;;;15.94;88.67
77112;BME280;66064;50.226;14.344;2023-06-24T03:34:48;100153.34;;;15.91;88.50
77112;BME280;66064;50.226;14.344;2023-06-24T03:37:15;100139.06;;;15.82;89.17
77112;BME280;66064;50.226;14.344;2023-06-24T03:39:41;100136.38;;;15.82;88.49
77112;BME280;66064;50.226;14.344;2023-06-24T03:42:08;100154.28;;;15.86;89.08
77112;BME280;66064;50.226;14.344;2023-06-24T03:44:33;100149.81;;;15.82;89.00
77112;BME280;66064;50.226;14.344;2023-06-24T03:46:59;100160.53;;;15.89;88.75
77112;BME280;66064;50.226;14.344;2023-06-24T03:49:25;100153.38;;;15.82;89.15
77112;BME280;66064;50.226;14.344;2023-06-24T03:51:51;100162.31;;;15.93;89.05
77112;BME280;66064;50.226;14.344;2023-06-24T03:54:17;100160.53;;;15.91;89.86
77112;BME280;66064;50.226;14.344;2023-06-24T03:56:43;100161.44;;;15.88;89.61
77112;BME280;66064;50.226;14.344;2023-06-24T03:59:09;100164.13;;;15.87;89.62
77112;BME280;66064;50.226;14.344;2023-06-24T04:01:35;100160.53;;;15.88;89.50
77112;BME280;66064;50.226;14.344;2023-06-24T04:04:02;100154.28;;;15.78;89.89
77112;BME280;66064;50.226;14.344;2023-06-24T04:06:28;100144.47;;;15.72;89.45
77112;BME280;66064;50.226;14.344;2023-06-24T04:08:54;100142.66;;;15.76;89.01
77112;BME280;66064;50.226;14.344;2023-06-24T04:11:20;100148.03;;;15.85;88.71
77112;BME280;66064;50.226;14.344;2023-06-24T04:13:46;100148.03;;;15.88;89.26
77112;BME280;66064;50.226;14.344;2023-06-24T04:16:14;100156.94;;;15.96;88.47
77112;BME280;66064;50.226;14.344;2023-06-24T04:18:40;100162.31;;;15.99;89.52
77112;BME280;66064;50.226;14.344;2023-06-24T04:21:06;100161.41;;;15.97;88.90
77112;BME280;66064;50.226;14.344;2023-06-24T04:23:33;100164.09;;;15.94;89.60
77112;BME280;66064;50.226;14.344;2023-06-24T04:25:59;100147.09;;;15.94;90.00
77112;BME280;66064;50.226;14.344;2023-06-24T04:28:25;100138.16;;;15.95;88.79
77112;BME280;66064;50.226;14.344;2023-06-24T04:30:51;100150.66;;;16.02;88.47
77112;BME280;66064;50.226;14.344;2023-06-24T04:33:17;100135.47;;;16.01;88.19
77112;BME280;66064;50.226;14.344;2023-06-24T04:35:44;100150.63;;;16.14;88.55
77112;BME280;66064;50.226;14.344;2023-06-24T04:38:10;100157.78;;;16.18;87.76
77112;BME280;66064;50.226;14.344;2023-06-24T04:40:36;100140.78;;;16.15;88.21
77112;BME280;66064;50.226;14.344;2023-06-24T04:43:02;100149.69;;;16.26;88.40
77112;BME280;66064;50.226;14.344;2023-06-24T04:45:28;100155.94;;;16.32;88.36
77112;BME280;66064;50.226;14.344;2023-06-24T04:47:54;100152.34;;;16.39;87.61
77112;BME280;66064;50.226;14.344;2023-06-24T04:50:20;100154.09;;;16.42;87.35
77112;BME280;66064;50.226;14.344;2023-06-24T04:52:52;100154.97;;;16.53;86.78
77112;BME280;66064;50.226;14.344;2023-06-24T04:55:19;100163.91;;;16.57;88.05
77112;BME280;66064;50.226;14.344;2023-06-24T04:57:44;100154.03;;;16.59;87.82
77112;BME280;66064;50.226;14.344;2023-06-24T05:00:11;100167.47;;;16.69;87.62
77112;BME280;66064;50.226;14.344;2023-06-24T05:02:36;100171.06;;;16.71;87.73
77112;BME280;66064;50.226;14.344;2023-06-24T05:05:03;100172.81;;;16.72;86.29
77112;BME280;66064;50.226;14.344;2023-06-24T05:07:29;100170.16;;;16.68;87.17
77112;BME280;66064;50.226;14.344;2023-06-24T05:09:55;100178.19;;;16.75;86.88
77112;BME280;66064;50.226;14.344;2023-06-24T05:12:21;100179.97;;;16.73;88.06
77112;BME280;66064;50.226;14.344;2023-06-24T05:14:51;100188.94;;;16.72;87.37
77112;BME280;66064;50.226;14.344;2023-06-24T05:17:20;100179.06;;;16.77;87.45
77112;BME280;66064;50.226;14.344;2023-06-24T05:19:46;100179.06;;;16.77;87.38
77112;BME280;66064;50.226;14.344;2023-06-24T05:22:12;100171.91;;;16.76;88.20
77112;BME280;66064;50.226;14.344;2023-06-24T05:24:38;100175.47;;;16.78;89.10
77112;BME280;66064;50.226;14.344;2023-06-24T05:27:05;100188.84;;;16.91;87.69
77112;BME280;66064;50.226;14.344;2023-06-24T05:29:32;100177.19;;;16.96;87.68
77112;BME280;66064;50.226;14.344;2023-06-24T05:31:58;100187.03;;;16.99;88.16
77112;BME280;66064;50.226;14.344;2023-06-24T05:34:25;100179.88;;;16.95;88.40
77112;BME280;66064;50.226;14.344;2023-06-24T05:36:51;100187.91;;;17.01;88.42
77112;BME280;66064;50.226;14.344;2023-06-24T05:39:17;100185.22;;;17.02;88.67
77112;BME280;66064;50.226;14.344;2023-06-24T05:41:43;100178.09;;;16.91;88.52
77112;BME280;66064;50.226;14.344;2023-06-24T05:44:09;100192.34;;;17.08;88.25
77112;BME280;66064;50.226;14.344;2023-06-24T05:46:36;100184.34;;;16.99;88.33
77112;BME280;66064;50.226;14.344;2023-06-24T05:49:03;100203.16;;;17.02;88.95
77112;BME280;66064;50.226;14.344;2023-06-24T05:51:29;100197.78;;;16.96;88.68
77112;BME280;66064;50.226;14.344;2023-06-24T05:53:55;100201.38;;;16.96;89.11
77112;BME280;66064;50.226;14.344;2023-06-24T05:56:21;100207.63;;;17.04;89.07
77112;BME280;66064;50.226;14.344;2023-06-24T05:58:50;100215.66;;;17.06;90.10
77112;BME280;66064;50.226;14.344;2023-06-24T06:01:16;100214.81;;;16.99;89.67
77112;BME280;66064;50.226;14.344;2023-06-24T06:03:42;100217.50;;;17.02;89.46
77112;BME280;66064;50.226;14.344;2023-06-24T06:06:08;100218.38;;;17.04;90.10
77112;BME280;66064;50.226;14.344;2023-06-24T06:08:35;100231.69;;;17.21;90.44
77112;BME280;66064;50.226;14.344;2023-06-24T06:11:00;100237.06;;;17.24;89.20
77112;BME280;66064;50.226;14.344;2023-06-24T06:13:30;100235.25;;;17.32;89.28
77112;BME280;66064;50.226;14.344;2023-06-24T06:15:56;100242.34;;;17.38;89.08
77112;BME280;66064;50.226;14.344;2023-06-24T06:18:23;100241.31;;;17.62;88.85
77112;BME280;66064;50.226;14.344;2023-06-24T06:20:49;100240.41;;;17.69;88.02
77112;BME280;66064;50.226;14.344;2023-06-24T06:23:15;100236.59;;;17.91;86.41
77112;BME280;66064;50.226;14.344;2023-06-24T06:25:42;100223.81;;;18.17;86.40
77112;BME280;66064;50.226;14.344;2023-06-24T06:28:10;100228.88;;;18.48;85.73
77112;BME280;66064;50.226;14.344;2023-06-24T06:30:36;100237.34;;;18.93;83.57
77112;BME280;66064;50.226;14.344;2023-06-24T06:33:02;100225.94;;;19.35;81.02
77112;BME280;66064;50.226;14.344;2023-06-24T06:35:28;100227.66;;;19.42;80.80
77112;BME280;66064;50.226;14.344;2023-06-24T06:37:54;100227.72;;;19.96;78.74
77112;BME280;66064;50.226;14.344;2023-06-24T06:40:20;100227.22;;;20.71;77.36
77112;BME280;66064;50.226;14.344;2023-06-24T06:42:47;100222.34;;;21.30;73.93
77112;BME280;66064;50.226;14.344;2023-06-24T06:45:13;100229.19;;;22.20;70.35
77112;BME280;66064;50.226;14.344;2023-06-24T06:47:39;100212.41;;;23.03;68.37
77112;BME280;66064;50.226;14.344;2023-06-24T06:50:05;100221.75;;;23.52;64.07
77112;BME280;66064;50.226;14.344;2023-06-24T06:52:32;100213.66;;;24.31;62.03
77112;BME280;66064;50.226;14.344;2023-06-24T06:54:58;100206.88;;;25.61;60.71
77112;BME280;66064;50.226;14.344;2023-06-24T06:57:24;100198.34;;;26.34;54.73
77112;BME280;66064;50.226;14.344;2023-06-24T06:59:52;100197.69;;;27.65;51.54
77112;BME280;66064;50.226;14.344;2023-06-24T07:02:20;100191.50;;;27.79;51.09
77112;BME280;66064;50.226;14.344;2023-06-24T07:04:47;100195.81;;;27.84;48.41
77112;BME280;66064;50.226;14.344;2023-06-24T07:07:15;100191.38;;;28.35;49.31
77112;BME280;66064;50.226;14.344;2023-06-24T07:09:43;100189.44;;;28.54;46.08
77112;BME280;66064;50.226;14.344;2023-06-24T07:12:15;100185.03;;;29.97;43.02
77112;BME280;66064;50.226;14.344;2023-06-24T07:14:42;100179.91;;;29.90;44.38
77112;BME280;66064;50.226;14.344;2023-06-24T07:17:10;100185.16;;;30.25;42.66
77112;BME280;66064;50.226;14.344;2023-06-24T07:19:38;100190.78;;;29.92;44.03
77112;BME280;66064;50.226;14.344;2023-06-24T07:22:06;100169.41;;;30.73;41.80
77112;BME280;66064;50.226;14.344;2023-06-24T07:24:33;100170.47;;;32.36;39.63
77112;BME280;66064;50.226;14.344;2023-06-24T07:27:00;100187.56;;;29.70;42.74
77112;BME280;66064;50.226;14.344;2023-06-24T07:29:26;100184.28;;;30.54;40.71
77112;BME280;66064;50.226;14.344;2023-06-24T07:31:52;100181.06;;;33.56;36.65
77112;BME280;66064;50.226;14.344;2023-06-24T07:34:18;100168.00;;;35.45;32.08
77112;BME280;66064;50.226;14.344;2023-06-24T07:36:45;100181.41;;;32.50;35.13
77112;BME280;66064;50.226;14.344;2023-06-24T07:39:10;100172.56;;;32.06;36.99
77112;BME280;66064;50.226;14.344;2023-06-24T07:41:37;100182.13;;;32.92;37.03
77112;BME280;66064;50.226;14.344;2023-06-24T07:44:03;100176.44;;;35.21;31.87
77112;BME280;66064;50.226;14.344;2023-06-24T07:46:29;100165.22;;;35.11;31.16
77112;BME280;66064;50.226;14.344;2023-06-24T07:48:55;100162.44;;;34.43;31.63
77112;BME280;66064;50.226;14.344;2023-06-24T07:51:21;100161.03;;;34.72;30.51
77112;BME280;66064;50.226;14.344;2023-06-24T07:53:47;100172.47;;;33.85;32.66
77112;BME280;66064;50.226;14.344;2023-06-24T07:56:13;100174.31;;;35.35;31.33
77112;BME280;66064;50.226;14.344;2023-06-24T07:58:39;100177.09;;;33.48;32.77
77112;BME280;66064;50.226;14.344;2023-06-24T08:01:05;100168.03;;;35.99;30.42
77112;BME280;66064;50.226;14.344;2023-06-24T08:03:31;100174.03;;;35.16;31.14
77112;BME280;66064;50.226;14.344;2023-06-24T08:05:57;100172.97;;;37.31;26.84
77112;BME280;66064;50.226;14.344;2023-06-24T08:08:23;100158.72;;;38.63;23.82
77112;BME280;66064;50.226;14.344;2023-06-24T08:10:49;100176.63;;;37.72;26.33
77112;BME280;66064;50.226;14.344;2023-06-24T08:13:15;100172.09;;;36.27;27.51
77112;BME280;66064;50.226;14.344;2023-06-24T08:15:41;100169.09;;;36.19;28.25
77112;BME280;66064;50.226;14.344;2023-06-24T08:18:07;100169.47;;;37.79;25.78
77112;BME280;66064;50.226;14.344;2023-06-24T08:20:33;100164.31;;;37.25;26.00
77112;BME280;66064;50.226;14.344;2023-06-24T08:22:59;100172.72;;;36.30;27.84
77112;BME280;66064;50.226;14.344;2023-06-24T08:25:25;100176.94;;;33.62;30.54
77112;BME280;66064;50.226;14.344;2023-06-24T08:27:51;100173.72;;;34.04;30.22
77112;BME280;66064;50.226;14.344;2023-06-24T08:30:17;100168.66;;;32.62;32.16
77112;BME280;66064;50.226;14.344;2023-06-24T08:32:43;100172.25;;;30.27;37.90
77112;BME280;66064;50.226;14.344;2023-06-24T08:35:09;100190.53;;;28.68;40.55
77112;BME280;66064;50.226;14.344;2023-06-24T08:37:36;100193.06;;;29.70;41.49
77112;BME280;66064;50.226;14.344;2023-06-24T08:40:04;100176.56;;;33.43;33.12
77112;BME280;66064;50.226;14.344;2023-06-24T08:42:30;100175.44;;;35.55;28.95
77112;BME280;66064;50.226;14.344;2023-06-24T08:44:57;100187.06;;;33.74;31.65
77112;BME280;66064;50.226;14.344;2023-06-24T08:47:24;100176.03;;;31.68;33.98
77112;BME280;66064;50.226;14.344;2023-06-24T08:49:58;100182.09;;;30.89;37.52
77112;BME280;66064;50.226;14.344;2023-06-24T08:52:32;100193.13;;;29.84;39.12
77112;BME280;66064;50.226;14.344;2023-06-24T08:54:59;100191.03;;;28.41;42.33
77112;BME280;66064;50.226;14.344;2023-06-24T08:57:26;100192.31;;;27.81;43.21
77112;BME280;66064;50.226;14.344;2023-06-24T08:59:53;100186.31;;;29.75;42.21
77112;BME280;66064;50.226;14.344;2023-06-24T09:02:19;100173.13;;;32.11;34.88
77112;BME280;66064;50.226;14.344;2023-06-24T09:04:45;100176.50;;;34.16;31.85
77112;BME280;66064;50.226;14.344;2023-06-24T09:07:11;100173.25;;;33.12;33.81
77112;BME280;66064;50.226;14.344;2023-06-24T09:09:44;100190.47;;;31.16;36.77
77112;BME280;66064;50.226;14.344;2023-06-24T09:12:12;100189.34;;;29.71;38.97
77112;BME280;66064;50.226;14.344;2023-06-24T09:14:39;100195.72;;;28.39;42.61
77112;BME280;66064;50.226;14.344;2023-06-24T09:17:06;100189.84;;;27.39;44.27
77112;BME280;66064;50.226;14.344;2023-06-24T09:19:36;100192.19;;;30.89;39.86
77112;BME280;66064;50.226;14.344;2023-06-24T09:22:04;100186.41;;;33.70;33.75
77112;BME280;66064;50.226;14.344;2023-06-24T09:24:32;100184.13;;;35.28;31.17
77112;BME280;66064;50.226;14.344;2023-06-24T09:26:58;100171.56;;;36.33;28.04
77112;BME280;66064;50.226;14.344;2023-06-24T09:29:29;100176.88;;;36.25;26.38
77112;BME280;66064;50.226;14.344;2023-06-24T09:31:56;100177.22;;;34.65;28.78
77112;BME280;66064;50.226;14.344;2023-06-24T09:34:25;100182.75;;;35.99;29.32
77112;BME280;66064;50.226;14.344;2023-06-24T09:36:53;100184.16;;;37.20;28.43
77112;BME280;66064;50.226;14.344;2023-06-24T09:39:20;100175.53;;;36.08;27.04
77112;BME280;66064;50.226;14.344;2023-06-24T09:42:00;100178.28;;;34.98;28.94
77112;BME280;66064;50.226;14.344;2023-06-24T09:44:27;100170.41;;;36.03;27.95
77112;BME280;66064;50.226;14.344;2023-06-24T09:46:54;100166.84;;;35.58;29.32
77112;BME280;66064;50.226;14.344;2023-06-24T09:49:22;100173.13;;;36.88;28.56
77112;BME280;66064;50.226;14.344;2023-06-24T09:51:55;100181.31;;;35.84;28.07
77112;BME280;66064;50.226;14.344;2023-06-24T09:54:21;100177.44;;;34.62;30.75
77112;BME280;66064;50.226;14.344;2023-06-24T09:56:49;100171.69;;;34.30;32.35
77112;BME280;66064;50.226;14.344;2023-06-24T09:59:17;100179.97;;;34.77;30.11
77112;BME280;66064;50.226;14.344;2023-06-24T10:01:47;100177.69;;;33.02;31.39
77112;BME280;66064;50.226;14.344;2023-06-24T10:04:18;100190.47;;;31.98;32.56
77112;BME280;66064;50.226;14.344;2023-06-24T10:06:45;100185.44;;;31.23;34.64
77112;BME280;66064;50.226;14.344;2023-06-24T10:09:11;100177.38;;;31.06;35.33
77112;BME280;66064;50.226;14.344;2023-06-24T10:11:39;100179.75;;;31.26;36.32
77112;BME280;66064;50.226;14.344;2023-06-24T10:14:06;100176.72;;;30.14;35.67
77112;BME280;66064;50.226;14.344;2023-06-24T10:16:32;100175.97;;;30.26;38.75
77112;BME280;66064;50.226;14.344;2023-06-24T10:19:02;100188.16;;;31.92;36.15
77112;BME280;66064;50.226;14.344;2023-06-24T10:21:44;100177.31;;;33.45;29.45
77112;BME280;66064;50.226;14.344;2023-06-24T10:24:12;100183.38;;;34.58;29.29
77112;BME280;66064;50.226;14.344;2023-06-24T10:26:40;100170.00;;;34.87;29.60
77112;BME280;66064;50.226;14.344;2023-06-24T10:37:23;100168.09;;;35.88;27.74
77112;BME280;66064;50.226;14.344;2023-06-24T10:44:56;100164.44;;;33.32;30.39
77112;BME280;66064;50.226;14.344;2023-06-24T10:47:23;100160.13;;;31.73;32.23
77112;BME280;66064;50.226;14.344;2023-06-24T10:49:50;100164.97;;;30.70;35.17
77112;BME280;66064;50.226;14.344;2023-06-24T10:52:18;100164.94;;;30.12;35.51
77112;BME280;66064;50.226;14.344;2023-06-24T10:54:46;100157.25;;;30.77;37.47
77112;BME280;66064;50.226;14.344;2023-06-24T10:57:12;100139.81;;;31.88;32.39
77112;BME280;66064;50.226;14.344;2023-06-24T10:59:42;100146.50;;;33.27;31.69
77112;BME280;66064;50.226;14.344;2023-06-24T11:02:16;100150.31;;;33.37;30.01
77112;BME280;66064;50.226;14.344;2023-06-24T11:05:05;100143.25;;;33.93;29.40
77112;BME280;66064;50.226;14.344;2023-06-24T11:07:36;100147.56;;;33.61;29.91
77112;BME280;66064;50.226;14.344;2023-06-24T11:10:09;100142.84;;;32.63;31.23
77112;BME280;66064;50.226;14.344;2023-06-24T11:12:37;100134.44;;;33.15;28.95
77112;BME280;66064;50.226;14.344;2023-06-24T11:15:04;100130.88;;;33.39;27.81
77112;BME280;66064;50.226;14.344;2023-06-24T11:17:30;100128.97;;;33.76;30.08
77112;BME280;66064;50.226;14.344;2023-06-24T11:19:57;100124.81;;;33.70;28.40
77112;BME280;66064;50.226;14.344;2023-06-24T11:22:24;100141.44;;;33.45;30.23
77112;BME280;66064;50.226;14.344;2023-06-24T11:24:51;100140.13;;;33.74;28.19
77112;BME280;66064;50.226;14.344;2023-06-24T11:27:24;100132.16;;;34.06;28.01
77112;BME280;66064;50.226;14.344;2023-06-24T11:29:52;100131.09;;;33.72;25.52
77112;BME280;66064;50.226;14.344;2023-06-24T11:32:18;100127.44;;;33.95;28.71
77112;BME280;66064;50.226;14.344;2023-06-24T11:34:44;100119.66;;;32.65;31.02
77112;BME280;66064;50.226;14.344;2023-06-24T11:37:11;100121.22;;;32.44;27.85
77112;BME280;66064;50.226;14.344;2023-06-24T11:39:38;100119.78;;;31.99;33.37
77112;BME280;66064;50.226;14.344;2023-06-24T11:42:06;100127.16;;;31.45;31.92
77112;BME280;66064;50.226;14.344;2023-06-24T11:44:41;100121.97;;;31.81;34.15
77112;BME280;66064;50.226;14.344;2023-06-24T11:47:11;100124.72;;;32.21;32.90
77112;BME280;66064;50.226;14.344;2023-06-24T11:49:57;100124.00;;;32.17;28.91
77112;BME280;66064;50.226;14.344;2023-06-24T11:52:39;100117.25;;;32.23;29.01
77112;BME280;66064;50.226;14.344;2023-06-24T11:55:20;100124.34;;;31.32;31.65
77112;BME280;66064;50.226;14.344;2023-06-24T11:57:59;100109.44;;;30.93;32.82
77112;BME280;66064;50.226;14.344;2023-06-24T12:00:31;100104.63;;;31.25;27.76
77112;BME280;66064;50.226;14.344;2023-06-24T12:03:05;100110.13;;;30.97;30.19
77112;BME280;66064;50.226;14.344;2023-06-24T12:05:33;100107.78;;;30.77;30.13
77112;BME280;66064;50.226;14.344;2023-06-24T12:08:01;100113.97;;;29.92;35.23
77112;BME280;66064;50.226;14.344;2023-06-24T12:10:28;100111.50;;;30.61;31.93
77112;BME280;66064;50.226;14.344;2023-06-24T12:12:56;100103.81;;;29.78;35.41
77112;BME280;66064;50.226;14.344;2023-06-24T12:15:23;100106.69;;;29.61;36.11
77112;BME280;66064;50.226;14.344;2023-06-24T12:17:50;100104.75;;;30.23;34.36
77112;BME280;66064;50.226;14.344;2023-06-24T12:20:16;100099.34;;;29.91;34.40
77112;BME280;66064;50.226;14.344;2023-06-24T12:22:44;100096.16;;;29.69;35.04
77112;BME280;66064;50.226;14.344;2023-06-24T12:25:10;100100.13;;;28.85;38.59
77112;BME280;66064;50.226;14.344;2023-06-24T12:27:37;100091.28;;;29.11;34.10
77112;BME280;66064;50.226;14.344;2023-06-24T12:30:05;100080.50;;;28.93;32.75
77112;BME280;66064;50.226;14.344;2023-06-24T12:32:31;100092.09;;;28.65;34.80
77112;BME280;66064;50.226;14.344;2023-06-24T12:34:57;100085.50;;;28.18;36.57
77112;BME280;66064;50.226;14.344;2023-06-24T12:37:23;100095.06;;;27.39;37.79
77112;BME280;66064;50.226;14.344;2023-06-24T12:39:49;100091.75;;;27.33;39.19
77112;BME280;66064;50.226;14.344;2023-06-24T12:42:16;100085.25;;;27.71;39.18
77112;BME280;66064;50.226;14.344;2023-06-24T12:44:43;100061.47;;;27.91;38.12
77112;BME280;66064;50.226;14.344;2023-06-24T12:47:09;100071.44;;;27.74;35.31
77112;BME280;66064;50.226;14.344;2023-06-24T12:49:35;100082.28;;;27.40;39.44
77112;BME280;66064;50.226;14.344;2023-06-24T12:52:01;100080.53;;;27.39;41.33
77112;BME280;66064;50.226;14.344;2023-06-24T12:54:28;100071.69;;;27.15;39.49
77112;BME280;66064;50.226;14.344;2023-06-24T12:56:55;100074.50;;;27.13;39.81
77112;BME280;66064;50.226;14.344;2023-06-24T12:59:21;100085.41;;;26.76;39.84
77112;BME280;66064;50.226;14.344;2023-06-24T13:01:47;100085.09;;;26.44;42.23
77112;BME280;66064;50.226;14.344;2023-06-24T13:04:14;100067.53;;;26.69;39.14
77112;BME280;66064;50.226;14.344;2023-06-24T13:06:40;100055.44;;;26.93;37.76